Sovereign — MNNU8 — position and weather

sailwx.info

Track history (hours):
 
Tides and Currents Weather Stations Pressure Air Temp Water Temp Dewpoint Dewpoint Depression Visibility Wind Speed Wind Dir Waves Ship Positions

Sovereign

Last reported at 2017-Oct-19 14:53 UTC. Time now 2017-Oct-19 23:53 UTC.
Position N 31°45' E 031°58'.

Length 131 m; draft 6.7 m.

Type: Other ship. MMSI: 232892000.

Date/timePositionNaut miles runAvg speedWind from/ knotsBaromVisibWave heightAir tempDewpointWater temp
2017-Oct-19 14:53N 31°45' E 031°58'63012.7
2017-Oct-17 13:04N 34°44' E 019°55'113.0
2017-Oct-17 12:59N 34°44' E 019°54'713.0
2017-Oct-17 12:29N 34°46' E 019°47'3312.8
2017-Oct-17 09:53N 34°55' E 019°08'22512.9
2017-Oct-16 16:27N 36°01' E 014°44'4 9.6
2017-Oct-16 15:59N 36°00' E 014°39'8 0.2
2017-Oct-14 17:28N 35°54' E 014°32'3 5.9
2017-Oct-14 16:59N 35°56' E 014°34'1 2.0
2017-Oct-14 16:30N 35°57' E 014°33'2 3.6
2017-Oct-14 16:00N 35°59' E 014°31'2 4.7
2017-Oct-14 15:30N 36°00' E 014°29'4 7.3
2017-Oct-14 14:57N 36°03' E 014°26'3 7.6
2017-Oct-14 14:30N 36°05' E 014°23'4 7.3
2017-Oct-14 14:00N 36°07' E 014°19'4 7.2
2017-Oct-14 13:30N 36°08' E 014°15'4 7.7
2017-Oct-14 13:00N 36°09' E 014°10'4 7.7
2017-Oct-14 12:30N 36°10' E 014°06'4 7.7
2017-Oct-14 12:00N 36°12' E 014°01'4 7.8
2017-Oct-14 11:30N 36°13' E 013°57'4 8.6
2017-Oct-14 11:00N 36°15' E 013°52'4 9.0
2017-Oct-14 10:30N 36°16' E 013°46'57311.6
2017-Oct-12 09:09N 37°07' E 001°54'1612.7
2017-Oct-12 07:52N 37°04' E 001°34'7512.8
2017-Oct-12 01:59N 36°47' E 000°02'613.1
2017-Oct-12 01:30N 36°45' W 000°05'3412.9
2017-Oct-11 22:51N 36°38' W 000°47'2013.0
2017-Oct-11 21:21N 36°34' W 001°11'10514.3
2017-Oct-11 14:00N 36°12' W 003°18'19511.8 070 / 121022.210.8 21.816.2
2017-Oct-10 21:28N 36°06' W 007°20'612.5
2017-Oct-10 20:58N 36°08' W 007°27'612.2
2017-Oct-10 20:27N 36°10' W 007°35'612.3
2017-Oct-10 19:59N 36°11' W 007°42'1012.7
2017-Oct-10 19:13N 36°14' W 007°53'312.5
2017-Oct-10 19:00N 36°15' W 007°57'712.7
2017-Oct-10 18:27N 36°17' W 008°05'812.9
2017-Oct-10 17:52N 36°19' W 008°14'612.9
2017-Oct-10 17:24N 36°21' W 008°21'812.7
2017-Oct-10 16:47N 36°23' W 008°30'413.2
2017-Oct-10 16:30N 36°24' W 008°35'613.1
2017-Oct-10 16:00N 36°26' W 008°43'612.9
2017-Oct-10 15:30N 36°27' W 008°50'813.1
2017-Oct-10 14:54N 36°30' W 008°60'1213.3
2017-Oct-10 13:58N 36°33' W 009°14'612.6
2017-Oct-10 13:31N 36°36' W 009°21'712.8
2017-Oct-10 13:00N 36°41' W 009°26'612.8
2017-Oct-10 12:30N 36°46' W 009°31'612.7
2017-Oct-10 12:00N 36°52' W 009°34'713.1
2017-Oct-10 11:29N 36°58' W 009°36'612.9
2017-Oct-10 11:00N 37°04' W 009°38'612.8
2017-Oct-10 10:30N 37°11' W 009°40'612.9
2017-Oct-10 10:00N 37°17' W 009°41'713.1
2017-Oct-10 09:30N 37°23' W 009°43'713.3
2017-Oct-10 09:00N 37°30' W 009°45'713.3
2017-Oct-10 08:30N 37°36' W 009°47'612.9
2017-Oct-10 08:00N 37°43' W 009°49'713.3
2017-Oct-10 07:30N 37°49' W 009°51'713.2
2017-Oct-10 07:00N 37°55' W 009°53'713.2
2017-Oct-10 06:30N 38°02' W 009°56'713.3
2017-Oct-10 06:00N 38°08' W 009°58'713.2
2017-Oct-10 05:30N 38°15' W 009°60'713.0
2017-Oct-10 05:00N 38°21' W 010°02'713.2
2017-Oct-10 04:30N 38°27' W 010°05'713.3
2017-Oct-10 04:00N 38°34' W 010°06'14957.8
2017-Oct-10 04:00N 38°48' W 010°06'816.5 140 / 71018.2 0.3 16.816.3
2017-Oct-10 03:30N 38°40' W 010°08'713.6
2017-Oct-10 03:00N 38°47' W 010°08'713.5
2017-Oct-10 02:30N 38°54' W 010°08'713.3
2017-Oct-10 02:00N 39°00' W 010°08'613.0
2017-Oct-10 01:30N 39°07' W 010°08'713.2
2017-Oct-10 01:00N 39°13' W 010°07'713.0
2017-Oct-10 00:30N 39°20' W 010°07'713.2
2017-Oct-10 00:00N 39°26' W 010°07'713.5
2017-Oct-09 23:30N 39°33' W 010°08'713.2
2017-Oct-09 23:01N 39°40' W 010°08'613.0
2017-Oct-09 22:31N 39°46' W 010°07'713.1
2017-Oct-09 22:00N 39°53' W 010°07'712.8
2017-Oct-09 21:29N 39°59' W 010°07'612.8
2017-Oct-09 21:00N 40°06' W 010°07'713.1
2017-Oct-09 20:30N 40°12' W 010°07'713.3
2017-Oct-09 20:00N 40°19' W 010°07'713.4
2017-Oct-09 19:30N 40°26' W 010°07'713.2
2017-Oct-09 19:00N 40°32' W 010°07'613.2
2017-Oct-09 18:30N 40°39' W 010°07'713.3
2017-Oct-09 18:00N 40°45' W 010°07'1213.3
2017-Oct-09 17:04N 40°58' W 010°07'113.3
2017-Oct-09 16:59N 40°59' W 010°07'612.9
2017-Oct-09 16:30N 41°05' W 010°07'913.2
2017-Oct-09 15:48N 41°14' W 010°08'413.5
2017-Oct-09 15:30N 41°18' W 010°08'  
Track history (hours):
 
Tides and Currents Weather Stations Pressure Air Temp Water Temp Dewpoint Dewpoint Depression Visibility Wind Speed Wind Dir Waves Ship Positions

Sovereign

Last reported at 2017-Oct-19 14:53 UTC. Time now 2017-Oct-19 23:53 UTC.
Position N 31°45' E 031°58'.

Length 131 m; draft 6.7 m.

Type: Other ship. MMSI: 232892000.

Date/timePositionNaut miles runAvg speedWind from/ knotsBaromVisibWave heightAir tempDewpointWater temp
2017-Oct-19 14:53N 31°45' E 031°58'63012.7
2017-Oct-17 13:04N 34°44' E 019°55'113.0
2017-Oct-17 12:59N 34°44' E 019°54'713.0
2017-Oct-17 12:29N 34°46' E 019°47'3312.8
2017-Oct-17 09:53N 34°55' E 019°08'22512.9
2017-Oct-16 16:27N 36°01' E 014°44'4 9.6
2017-Oct-16 15:59N 36°00' E 014°39'8 0.2
2017-Oct-14 17:28N 35°54' E 014°32'3 5.9
2017-Oct-14 16:59N 35°56' E 014°34'1 2.0
2017-Oct-14 16:30N 35°57' E 014°33'2 3.6
2017-Oct-14 16:00N 35°59' E 014°31'2 4.7
2017-Oct-14 15:30N 36°00' E 014°29'4 7.3
2017-Oct-14 14:57N 36°03' E 014°26'3 7.6
2017-Oct-14 14:30N 36°05' E 014°23'4 7.3
2017-Oct-14 14:00N 36°07' E 014°19'4 7.2
2017-Oct-14 13:30N 36°08' E 014°15'4 7.7
2017-Oct-14 13:00N 36°09' E 014°10'4 7.7
2017-Oct-14 12:30N 36°10' E 014°06'4 7.7
2017-Oct-14 12:00N 36°12' E 014°01'4 7.8
2017-Oct-14 11:30N 36°13' E 013°57'4 8.6
2017-Oct-14 11:00N 36°15' E 013°52'4 9.0
2017-Oct-14 10:30N 36°16' E 013°46'57311.6
2017-Oct-12 09:09N 37°07' E 001°54'1612.7
2017-Oct-12 07:52N 37°04' E 001°34'7512.8
2017-Oct-12 01:59N 36°47' E 000°02'613.1
2017-Oct-12 01:30N 36°45' W 000°05'3412.9
2017-Oct-11 22:51N 36°38' W 000°47'2013.0
2017-Oct-11 21:21N 36°34' W 001°11'10514.3
2017-Oct-11 14:00N 36°12' W 003°18'19511.8 070 / 121022.210.8 21.816.2
2017-Oct-10 21:28N 36°06' W 007°20'612.5
2017-Oct-10 20:58N 36°08' W 007°27'612.2
2017-Oct-10 20:27N 36°10' W 007°35'612.3
2017-Oct-10 19:59N 36°11' W 007°42'1012.7
2017-Oct-10 19:13N 36°14' W 007°53'312.5
2017-Oct-10 19:00N 36°15' W 007°57'712.7
2017-Oct-10 18:27N 36°17' W 008°05'812.9
2017-Oct-10 17:52N 36°19' W 008°14'612.9
2017-Oct-10 17:24N 36°21' W 008°21'812.7
2017-Oct-10 16:47N 36°23' W 008°30'413.2
2017-Oct-10 16:30N 36°24' W 008°35'613.1
2017-Oct-10 16:00N 36°26' W 008°43'612.9
2017-Oct-10 15:30N 36°27' W 008°50'813.1
2017-Oct-10 14:54N 36°30' W 008°60'1213.3
2017-Oct-10 13:58N 36°33' W 009°14'612.6
2017-Oct-10 13:31N 36°36' W 009°21'712.8
2017-Oct-10 13:00N 36°41' W 009°26'612.8
2017-Oct-10 12:30N 36°46' W 009°31'612.7
2017-Oct-10 12:00N 36°52' W 009°34'713.1
2017-Oct-10 11:29N 36°58' W 009°36'612.9
2017-Oct-10 11:00N 37°04' W 009°38'612.8
2017-Oct-10 10:30N 37°11' W 009°40'612.9
2017-Oct-10 10:00N 37°17' W 009°41'713.1
2017-Oct-10 09:30N 37°23' W 009°43'713.3
2017-Oct-10 09:00N 37°30' W 009°45'713.3
2017-Oct-10 08:30N 37°36' W 009°47'612.9
2017-Oct-10 08:00N 37°43' W 009°49'713.3
2017-Oct-10 07:30N 37°49' W 009°51'713.2
2017-Oct-10 07:00N 37°55' W 009°53'713.2
2017-Oct-10 06:30N 38°02' W 009°56'713.3
2017-Oct-10 06:00N 38°08' W 009°58'713.2
2017-Oct-10 05:30N 38°15' W 009°60'713.0
2017-Oct-10 05:00N 38°21' W 010°02'713.2
2017-Oct-10 04:30N 38°27' W 010°05'713.3
2017-Oct-10 04:00N 38°34' W 010°06'14957.8
2017-Oct-10 04:00N 38°48' W 010°06'816.5 140 / 71018.2 0.3 16.816.3
2017-Oct-10 03:30N 38°40' W 010°08'713.6
2017-Oct-10 03:00N 38°47' W 010°08'713.5
2017-Oct-10 02:30N 38°54' W 010°08'713.3
2017-Oct-10 02:00N 39°00' W 010°08'613.0
2017-Oct-10 01:30N 39°07' W 010°08'713.2
2017-Oct-10 01:00N 39°13' W 010°07'713.0
2017-Oct-10 00:30N 39°20' W 010°07'713.2
2017-Oct-10 00:00N 39°26' W 010°07'713.5
2017-Oct-09 23:30N 39°33' W 010°08'713.2
2017-Oct-09 23:01N 39°40' W 010°08'613.0
2017-Oct-09 22:31N 39°46' W 010°07'713.1
2017-Oct-09 22:00N 39°53' W 010°07'712.8
2017-Oct-09 21:29N 39°59' W 010°07'612.8
2017-Oct-09 21:00N 40°06' W 010°07'713.1
2017-Oct-09 20:30N 40°12' W 010°07'713.3
2017-Oct-09 20:00N 40°19' W 010°07'713.4
2017-Oct-09 19:30N 40°26' W 010°07'713.2
2017-Oct-09 19:00N 40°32' W 010°07'613.2
2017-Oct-09 18:30N 40°39' W 010°07'713.3
2017-Oct-09 18:00N 40°45' W 010°07'1213.3
2017-Oct-09 17:04N 40°58' W 010°07'113.3
2017-Oct-09 16:59N 40°59' W 010°07'612.9
2017-Oct-09 16:30N 41°05' W 010°07'913.2
2017-Oct-09 15:48N 41°14' W 010°08'413.5
2017-Oct-09 15:30N 41°18' W 010°08'  

Dump ship's entire track history